sensor_id;sensor_type;location;lat;lon;timestamp;P1;durP1;ratioP1;P2;durP2;ratioP2
39190;SDS011;24916;51.676;6.614;2022-07-23T00:02:11;6.57;;;3.22;;
39190;SDS011;24916;51.676;6.614;2022-07-23T00:04:36;7.55;;;3.83;;
39190;SDS011;24916;51.676;6.614;2022-07-23T00:07:02;6.93;;;3.42;;
39190;SDS011;24916;51.676;6.614;2022-07-23T00:09:27;6.20;;;3.47;;
39190;SDS011;24916;51.676;6.614;2022-07-23T00:11:55;6.80;;;3.42;;
39190;SDS011;24916;51.676;6.614;2022-07-23T00:14:20;7.43;;;3.77;;
39190;SDS011;24916;51.676;6.614;2022-07-23T00:16:46;9.75;;;4.13;;
39190;SDS011;24916;51.676;6.614;2022-07-23T00:19:11;5.70;;;3.90;;
39190;SDS011;24916;51.676;6.614;2022-07-23T00:21:36;6.25;;;3.72;;
39190;SDS011;24916;51.676;6.614;2022-07-23T00:24:01;7.87;;;4.00;;
39190;SDS011;24916;51.676;6.614;2022-07-23T00:26:27;7.00;;;3.45;;
39190;SDS011;24916;51.676;6.614;2022-07-23T00:28:52;7.93;;;4.05;;
39190;SDS011;24916;51.676;6.614;2022-07-23T00:31:17;6.63;;;3.53;;
39190;SDS011;24916;51.676;6.614;2022-07-23T00:33:42;9.17;;;4.40;;
39190;SDS011;24916;51.676;6.614;2022-07-23T00:36:08;7.13;;;3.60;;
39190;SDS011;24916;51.676;6.614;2022-07-23T00:38:33;11.63;;;3.97;;
39190;SDS011;24916;51.676;6.614;2022-07-23T00:40:58;6.80;;;3.67;;
39190;SDS011;24916;51.676;6.614;2022-07-23T00:43:24;11.00;;;4.40;;
39190;SDS011;24916;51.676;6.614;2022-07-23T00:45:49;8.27;;;4.10;;
39190;SDS011;24916;51.676;6.614;2022-07-23T00:48:15;6.67;;;4.17;;
39190;SDS011;24916;51.676;6.614;2022-07-23T00:50:40;7.38;;;4.05;;
39190;SDS011;24916;51.676;6.614;2022-07-23T00:53:05;8.57;;;4.40;;
39190;SDS011;24916;51.676;6.614;2022-07-23T00:55:31;7.60;;;4.27;;
39190;SDS011;24916;51.676;6.614;2022-07-23T00:57:56;8.68;;;4.00;;
39190;SDS011;24916;51.676;6.614;2022-07-23T01:00:22;8.68;;;3.97;;
39190;SDS011;24916;51.676;6.614;2022-07-23T01:02:47;8.95;;;4.55;;
39190;SDS011;24916;51.676;6.614;2022-07-23T01:05:12;5.97;;;3.97;;
39190;SDS011;24916;51.676;6.614;2022-07-23T01:07:38;9.80;;;4.65;;
39190;SDS011;24916;51.676;6.614;2022-07-23T01:10:03;9.65;;;4.40;;
39190;SDS011;24916;51.676;6.614;2022-07-23T01:12:29;8.95;;;5.00;;
39190;SDS011;24916;51.676;6.614;2022-07-23T01:14:58;8.52;;;4.15;;
39190;SDS011;24916;51.676;6.614;2022-07-23T01:17:23;8.02;;;4.40;;
39190;SDS011;24916;51.676;6.614;2022-07-23T01:19:48;8.68;;;3.70;;
39190;SDS011;24916;51.676;6.614;2022-07-23T01:22:14;12.75;;;4.63;;
39190;SDS011;24916;51.676;6.614;2022-07-23T01:24:39;8.25;;;4.43;;
39190;SDS011;24916;51.676;6.614;2022-07-23T01:27:04;11.53;;;4.10;;
39190;SDS011;24916;51.676;6.614;2022-07-23T01:29:30;12.70;;;4.13;;
39190;SDS011;24916;51.676;6.614;2022-07-23T01:31:56;7.82;;;4.18;;
39190;SDS011;24916;51.676;6.614;2022-07-23T01:34:21;7.63;;;4.28;;
39190;SDS011;24916;51.676;6.614;2022-07-23T01:36:46;6.90;;;3.92;;
39190;SDS011;24916;51.676;6.614;2022-07-23T01:39:12;9.10;;;4.93;;
39190;SDS011;24916;51.676;6.614;2022-07-23T01:41:37;8.05;;;4.18;;
39190;SDS011;24916;51.676;6.614;2022-07-23T01:44:02;9.37;;;4.73;;
39190;SDS011;24916;51.676;6.614;2022-07-23T01:46:28;8.60;;;5.32;;
39190;SDS011;24916;51.676;6.614;2022-07-23T01:48:53;9.15;;;3.90;;
39190;SDS011;24916;51.676;6.614;2022-07-23T01:51:18;10.07;;;5.15;;
39190;SDS011;24916;51.676;6.614;2022-07-23T01:53:43;9.93;;;4.47;;
39190;SDS011;24916;51.676;6.614;2022-07-23T01:56:09;10.10;;;5.10;;
39190;SDS011;24916;51.676;6.614;2022-07-23T01:58:34;7.57;;;4.40;;
39190;SDS011;24916;51.676;6.614;2022-07-23T02:00:59;9.57;;;4.97;;
39190;SDS011;24916;51.676;6.614;2022-07-23T02:03:25;7.88;;;4.65;;
39190;SDS011;24916;51.676;6.614;2022-07-23T02:05:50;9.05;;;4.72;;
39190;SDS011;24916;51.676;6.614;2022-07-23T02:08:15;8.93;;;4.87;;
39190;SDS011;24916;51.676;6.614;2022-07-23T02:10:41;8.95;;;5.07;;
39190;SDS011;24916;51.676;6.614;2022-07-23T02:13:06;8.18;;;4.80;;
39190;SDS011;24916;51.676;6.614;2022-07-23T02:15:32;9.55;;;5.20;;
39190;SDS011;24916;51.676;6.614;2022-07-23T02:17:58;8.20;;;5.22;;
39190;SDS011;24916;51.676;6.614;2022-07-23T02:20:23;7.30;;;4.60;;
39190;SDS011;24916;51.676;6.614;2022-07-23T02:22:48;13.05;;;5.55;;
39190;SDS011;24916;51.676;6.614;2022-07-23T02:25:14;10.13;;;5.00;;
39190;SDS011;24916;51.676;6.614;2022-07-23T02:27:39;8.77;;;5.10;;
39190;SDS011;24916;51.676;6.614;2022-07-23T02:30:04;10.17;;;5.00;;
39190;SDS011;24916;51.676;6.614;2022-07-23T02:32:30;9.43;;;5.15;;
39190;SDS011;24916;51.676;6.614;2022-07-23T02:34:55;10.10;;;5.27;;
39190;SDS011;24916;51.676;6.614;2022-07-23T02:37:20;13.07;;;5.10;;
39190;SDS011;24916;51.676;6.614;2022-07-23T02:39:45;9.13;;;5.67;;
39190;SDS011;24916;51.676;6.614;2022-07-23T02:42:10;15.87;;;6.37;;
39190;SDS011;24916;51.676;6.614;2022-07-23T02:44:36;8.90;;;5.23;;
39190;SDS011;24916;51.676;6.614;2022-07-23T02:47:01;11.13;;;5.45;;
39190;SDS011;24916;51.676;6.614;2022-07-23T02:49:26;9.30;;;5.22;;
39190;SDS011;24916;51.676;6.614;2022-07-23T02:51:52;9.43;;;5.10;;
39190;SDS011;24916;51.676;6.614;2022-07-23T02:54:17;10.07;;;5.88;;
39190;SDS011;24916;51.676;6.614;2022-07-23T02:56:43;8.55;;;5.50;;
39190;SDS011;24916;51.676;6.614;2022-07-23T02:59:08;10.60;;;5.20;;
39190;SDS011;24916;51.676;6.614;2022-07-23T03:01:33;12.03;;;5.57;;
39190;SDS011;24916;51.676;6.614;2022-07-23T03:03:58;11.07;;;5.15;;
39190;SDS011;24916;51.676;6.614;2022-07-23T03:06:24;11.35;;;5.57;;
39190;SDS011;24916;51.676;6.614;2022-07-23T03:08:49;9.68;;;5.60;;
39190;SDS011;24916;51.676;6.614;2022-07-23T03:11:14;8.93;;;5.43;;
39190;SDS011;24916;51.676;6.614;2022-07-23T03:13:40;10.47;;;5.17;;
39190;SDS011;24916;51.676;6.614;2022-07-23T03:16:05;9.70;;;5.20;;
39190;SDS011;24916;51.676;6.614;2022-07-23T03:18:31;10.27;;;5.82;;
39190;SDS011;24916;51.676;6.614;2022-07-23T03:20:56;9.32;;;5.38;;
39190;SDS011;24916;51.676;6.614;2022-07-23T03:23:21;10.13;;;5.50;;
39190;SDS011;24916;51.676;6.614;2022-07-23T03:25:46;12.05;;;5.95;;
39190;SDS011;24916;51.676;6.614;2022-07-23T03:28:13;10.38;;;5.75;;
39190;SDS011;24916;51.676;6.614;2022-07-23T03:30:38;13.35;;;6.40;;
39190;SDS011;24916;51.676;6.614;2022-07-23T03:33:04;8.40;;;5.53;;
39190;SDS011;24916;51.676;6.614;2022-07-23T03:35:29;9.65;;;5.82;;
39190;SDS011;24916;51.676;6.614;2022-07-23T03:37:54;10.50;;;5.70;;
39190;SDS011;24916;51.676;6.614;2022-07-23T03:40:19;10.33;;;5.83;;
39190;SDS011;24916;51.676;6.614;2022-07-23T03:42:45;11.55;;;5.97;;
39190;SDS011;24916;51.676;6.614;2022-07-23T03:45:11;10.73;;;5.82;;
39190;SDS011;24916;51.676;6.614;2022-07-23T03:47:36;9.73;;;5.55;;
39190;SDS011;24916;51.676;6.614;2022-07-23T03:50:01;7.13;;;5.53;;
39190;SDS011;24916;51.676;6.614;2022-07-23T03:52:27;9.57;;;5.93;;
39190;SDS011;24916;51.676;6.614;2022-07-23T03:54:52;10.50;;;5.40;;
39190;SDS011;24916;51.676;6.614;2022-07-23T03:57:17;7.83;;;5.27;;
39190;SDS011;24916;51.676;6.614;2022-07-23T03:59:42;13.73;;;6.25;;
39190;SDS011;24916;51.676;6.614;2022-07-23T04:02:08;11.30;;;5.67;;
39190;SDS011;24916;51.676;6.614;2022-07-23T04:04:33;9.17;;;6.00;;
39190;SDS011;24916;51.676;6.614;2022-07-23T04:06:58;18.37;;;5.67;;
39190;SDS011;24916;51.676;6.614;2022-07-23T04:09:23;9.77;;;5.57;;
39190;SDS011;24916;51.676;6.614;2022-07-23T04:11:48;11.17;;;5.53;;
39190;SDS011;24916;51.676;6.614;2022-07-23T04:14:14;9.30;;;5.90;;
39190;SDS011;24916;51.676;6.614;2022-07-23T04:16:39;9.17;;;5.57;;
39190;SDS011;24916;51.676;6.614;2022-07-23T04:19:04;10.20;;;5.53;;
39190;SDS011;24916;51.676;6.614;2022-07-23T04:21:30;7.75;;;5.20;;
39190;SDS011;24916;51.676;6.614;2022-07-23T04:23:55;9.05;;;6.05;;
39190;SDS011;24916;51.676;6.614;2022-07-23T04:26:20;9.97;;;6.27;;
39190;SDS011;24916;51.676;6.614;2022-07-23T04:28:46;11.50;;;6.38;;
39190;SDS011;24916;51.676;6.614;2022-07-23T04:31:11;9.33;;;6.23;;
39190;SDS011;24916;51.676;6.614;2022-07-23T04:33:36;11.57;;;6.32;;
39190;SDS011;24916;51.676;6.614;2022-07-23T04:36:02;9.83;;;6.50;;
39190;SDS011;24916;51.676;6.614;2022-07-23T04:38:27;8.63;;;6.53;;
39190;SDS011;24916;51.676;6.614;2022-07-23T04:40:52;11.73;;;6.50;;
39190;SDS011;24916;51.676;6.614;2022-07-23T04:43:18;12.43;;;6.77;;
39190;SDS011;24916;51.676;6.614;2022-07-23T04:45:43;11.27;;;7.35;;
39190;SDS011;24916;51.676;6.614;2022-07-23T04:48:08;12.70;;;6.38;;
39190;SDS011;24916;51.676;6.614;2022-07-23T04:50:34;12.32;;;6.80;;
39190;SDS011;24916;51.676;6.614;2022-07-23T04:52:59;11.67;;;7.00;;
39190;SDS011;24916;51.676;6.614;2022-07-23T04:55:24;11.52;;;6.90;;
39190;SDS011;24916;51.676;6.614;2022-07-23T04:57:49;13.95;;;7.18;;
39190;SDS011;24916;51.676;6.614;2022-07-23T05:00:15;10.10;;;6.72;;
39190;SDS011;24916;51.676;6.614;2022-07-23T05:02:40;9.82;;;6.68;;
39190;SDS011;24916;51.676;6.614;2022-07-23T05:05:05;11.03;;;7.30;;
39190;SDS011;24916;51.676;6.614;2022-07-23T05:07:31;11.20;;;6.97;;
39190;SDS011;24916;51.676;6.614;2022-07-23T05:09:56;11.57;;;6.80;;
39190;SDS011;24916;51.676;6.614;2022-07-23T05:12:21;10.27;;;6.68;;
39190;SDS011;24916;51.676;6.614;2022-07-23T05:14:46;11.93;;;6.47;;
39190;SDS011;24916;51.676;6.614;2022-07-23T05:17:12;12.13;;;7.23;;
39190;SDS011;24916;51.676;6.614;2022-07-23T05:19:37;12.97;;;6.23;;
39190;SDS011;24916;51.676;6.614;2022-07-23T05:22:02;9.77;;;6.03;;
39190;SDS011;24916;51.676;6.614;2022-07-23T05:24:27;10.30;;;6.33;;
39190;SDS011;24916;51.676;6.614;2022-07-23T05:26:53;10.05;;;6.38;;
39190;SDS011;24916;51.676;6.614;2022-07-23T05:29:18;9.60;;;6.57;;
39190;SDS011;24916;51.676;6.614;2022-07-23T05:31:43;8.98;;;5.75;;
39190;SDS011;24916;51.676;6.614;2022-07-23T05:34:09;10.27;;;6.07;;
39190;SDS011;24916;51.676;6.614;2022-07-23T05:36:36;9.10;;;6.03;;
39190;SDS011;24916;51.676;6.614;2022-07-23T05:39:02;8.45;;;6.10;;
39190;SDS011;24916;51.676;6.614;2022-07-23T05:41:28;8.32;;;6.20;;
39190;SDS011;24916;51.676;6.614;2022-07-23T05:43:54;8.02;;;5.53;;
39190;SDS011;24916;51.676;6.614;2022-07-23T05:46:19;9.07;;;5.55;;
39190;SDS011;24916;51.676;6.614;2022-07-23T05:48:44;8.60;;;5.38;;
39190;SDS011;24916;51.676;6.614;2022-07-23T05:51:18;8.57;;;5.45;;
39190;SDS011;24916;51.676;6.614;2022-07-23T05:53:44;7.75;;;5.25;;
39190;SDS011;24916;51.676;6.614;2022-07-23T05:56:09;8.02;;;5.07;;
39190;SDS011;24916;51.676;6.614;2022-07-23T05:58:34;8.70;;;5.17;;
39190;SDS011;24916;51.676;6.614;2022-07-23T06:00:59;10.73;;;5.40;;
39190;SDS011;24916;51.676;6.614;2022-07-23T06:03:25;9.37;;;5.40;;
39190;SDS011;24916;51.676;6.614;2022-07-23T06:05:51;7.43;;;4.95;;
39190;SDS011;24916;51.676;6.614;2022-07-23T06:08:16;9.23;;;5.33;;
39190;SDS011;24916;51.676;6.614;2022-07-23T06:10:42;7.57;;;5.18;;
39190;SDS011;24916;51.676;6.614;2022-07-23T06:13:07;8.90;;;4.93;;
39190;SDS011;24916;51.676;6.614;2022-07-23T06:15:32;10.18;;;5.32;;
39190;SDS011;24916;51.676;6.614;2022-07-23T06:17:57;10.30;;;5.07;;
39190;SDS011;24916;51.676;6.614;2022-07-23T06:20:23;7.50;;;5.10;;
39190;SDS011;24916;51.676;6.614;2022-07-23T06:22:48;8.30;;;4.97;;
39190;SDS011;24916;51.676;6.614;2022-07-23T06:25:13;7.73;;;5.47;;
39190;SDS011;24916;51.676;6.614;2022-07-23T06:27:38;7.80;;;5.07;;
39190;SDS011;24916;51.676;6.614;2022-07-23T06:30:04;8.80;;;5.20;;
39190;SDS011;24916;51.676;6.614;2022-07-23T06:32:30;7.03;;;4.75;;
39190;SDS011;24916;51.676;6.614;2022-07-23T06:34:55;6.93;;;4.68;;
39190;SDS011;24916;51.676;6.614;2022-07-23T06:37:21;9.73;;;4.90;;
39190;SDS011;24916;51.676;6.614;2022-07-23T06:39:46;10.30;;;5.40;;
39190;SDS011;24916;51.676;6.614;2022-07-23T06:42:11;7.88;;;4.47;;
39190;SDS011;24916;51.676;6.614;2022-07-23T06:44:37;7.13;;;4.68;;
39190;SDS011;24916;51.676;6.614;2022-07-23T06:47:02;7.60;;;4.88;;
39190;SDS011;24916;51.676;6.614;2022-07-23T06:49:28;9.73;;;4.25;;
39190;SDS011;24916;51.676;6.614;2022-07-23T06:51:53;6.20;;;4.20;;
39190;SDS011;24916;51.676;6.614;2022-07-23T06:54:18;7.13;;;4.37;;
39190;SDS011;24916;51.676;6.614;2022-07-23T06:56:43;7.33;;;4.30;;
39190;SDS011;24916;51.676;6.614;2022-07-23T06:59:08;8.70;;;3.60;;
39190;SDS011;24916;51.676;6.614;2022-07-23T07:01:34;6.60;;;3.07;;
39190;SDS011;24916;51.676;6.614;2022-07-23T07:03:59;5.60;;;3.23;;
39190;SDS011;24916;51.676;6.614;2022-07-23T07:06:24;5.23;;;3.23;;
39190;SDS011;24916;51.676;6.614;2022-07-23T07:08:49;6.67;;;2.70;;
39190;SDS011;24916;51.676;6.614;2022-07-23T07:11:15;5.75;;;2.88;;
39190;SDS011;24916;51.676;6.614;2022-07-23T07:13:40;7.05;;;3.35;;
39190;SDS011;24916;51.676;6.614;2022-07-23T07:16:05;4.93;;;2.80;;
39190;SDS011;24916;51.676;6.614;2022-07-23T07:18:30;6.47;;;3.00;;
39190;SDS011;24916;51.676;6.614;2022-07-23T07:20:56;7.95;;;3.20;;
39190;SDS011;24916;51.676;6.614;2022-07-23T07:23:22;6.45;;;3.28;;
39190;SDS011;24916;51.676;6.614;2022-07-23T07:25:47;5.10;;;3.30;;
39190;SDS011;24916;51.676;6.614;2022-07-23T07:28:12;8.33;;;5.47;;
39190;SDS011;24916;51.676;6.614;2022-07-23T07:30:37;6.60;;;4.10;;
39190;SDS011;24916;51.676;6.614;2022-07-23T07:33:03;11.27;;;6.47;;
39190;SDS011;24916;51.676;6.614;2022-07-23T07:35:28;8.97;;;5.13;;
39190;SDS011;24916;51.676;6.614;2022-07-23T07:37:53;7.63;;;3.93;;
39190;SDS011;24916;51.676;6.614;2022-07-23T07:40:19;4.73;;;2.40;;
39190;SDS011;24916;51.676;6.614;2022-07-23T07:42:47;8.15;;;2.05;;
39190;SDS011;24916;51.676;6.614;2022-07-23T07:45:13;4.35;;;2.20;;
39190;SDS011;24916;51.676;6.614;2022-07-23T07:47:38;6.63;;;2.78;;
39190;SDS011;24916;51.676;6.614;2022-07-23T07:50:03;4.43;;;1.90;;
39190;SDS011;24916;51.676;6.614;2022-07-23T07:52:29;3.92;;;2.08;;
39190;SDS011;24916;51.676;6.614;2022-07-23T07:54:54;5.47;;;2.30;;
39190;SDS011;24916;51.676;6.614;2022-07-23T07:57:19;5.25;;;2.08;;
39190;SDS011;24916;51.676;6.614;2022-07-23T07:59:44;4.47;;;2.13;;
39190;SDS011;24916;51.676;6.614;2022-07-23T08:02:10;4.63;;;2.20;;
39190;SDS011;24916;51.676;6.614;2022-07-23T08:04:35;5.33;;;2.00;;
39190;SDS011;24916;51.676;6.614;2022-07-23T08:07:00;5.27;;;1.90;;
39190;SDS011;24916;51.676;6.614;2022-07-23T08:09:25;3.80;;;2.00;;
39190;SDS011;24916;51.676;6.614;2022-07-23T08:11:51;4.30;;;2.00;;
39190;SDS011;24916;51.676;6.614;2022-07-23T08:14:16;3.65;;;1.88;;
39190;SDS011;24916;51.676;6.614;2022-07-23T08:16:42;3.03;;;1.75;;
39190;SDS011;24916;51.676;6.614;2022-07-23T08:19:07;4.53;;;1.93;;
39190;SDS011;24916;51.676;6.614;2022-07-23T08:21:32;5.13;;;2.10;;
39190;SDS011;24916;51.676;6.614;2022-07-23T08:23:58;3.08;;;1.80;;
39190;SDS011;24916;51.676;6.614;2022-07-23T08:26:23;5.35;;;2.30;;
39190;SDS011;24916;51.676;6.614;2022-07-23T08:28:48;7.57;;;4.00;;
39190;SDS011;24916;51.676;6.614;2022-07-23T08:31:13;5.50;;;2.10;;
39190;SDS011;24916;51.676;6.614;2022-07-23T08:33:40;6.03;;;2.17;;
39190;SDS011;24916;51.676;6.614;2022-07-23T08:36:05;3.10;;;1.90;;
39190;SDS011;24916;51.676;6.614;2022-07-23T08:38:31;2.90;;;2.05;;
39190;SDS011;24916;51.676;6.614;2022-07-23T08:40:56;4.13;;;2.38;;
39190;SDS011;24916;51.676;6.614;2022-07-23T08:43:25;4.22;;;2.25;;
39190;SDS011;24916;51.676;6.614;2022-07-23T08:45:51;3.08;;;2.10;;
39190;SDS011;24916;51.676;6.614;2022-07-23T08:48:17;5.85;;;2.08;;
39190;SDS011;24916;51.676;6.614;2022-07-23T08:50:44;5.78;;;2.50;;
39190;SDS011;24916;51.676;6.614;2022-07-23T08:53:09;3.35;;;2.17;;
39190;SDS011;24916;51.676;6.614;2022-07-23T08:55:35;4.18;;;2.08;;
39190;SDS011;24916;51.676;6.614;2022-07-23T08:58:00;4.22;;;1.70;;
39190;SDS011;24916;51.676;6.614;2022-07-23T09:00:26;4.03;;;2.35;;
39190;SDS011;24916;51.676;6.614;2022-07-23T09:02:51;3.83;;;2.00;;
39190;SDS011;24916;51.676;6.614;2022-07-23T09:05:16;4.63;;;2.17;;
39190;SDS011;24916;51.676;6.614;2022-07-23T09:13:24;5.25;;;1.90;;
39190;SDS011;24916;51.676;6.614;2022-07-23T09:15:50;4.68;;;1.85;;
39190;SDS011;24916;51.676;6.614;2022-07-23T09:18:16;2.92;;;1.40;;
39190;SDS011;24916;51.676;6.614;2022-07-23T09:20:41;3.47;;;1.73;;
39190;SDS011;24916;51.676;6.614;2022-07-23T09:23:06;4.10;;;1.85;;
39190;SDS011;24916;51.676;6.614;2022-07-23T09:25:32;4.93;;;1.80;;
39190;SDS011;24916;51.676;6.614;2022-07-23T09:27:58;4.57;;;2.00;;
39190;SDS011;24916;51.676;6.614;2022-07-23T09:30:25;2.40;;;1.20;;
39190;SDS011;24916;51.676;6.614;2022-07-23T09:35:49;2.97;;;1.73;;
39190;SDS011;24916;51.676;6.614;2022-07-23T09:38:15;4.00;;;1.60;;
39190;SDS011;24916;51.676;6.614;2022-07-23T09:40:41;2.45;;;1.23;;
39190;SDS011;24916;51.676;6.614;2022-07-23T09:43:06;4.25;;;1.30;;
39190;SDS011;24916;51.676;6.614;2022-07-23T09:45:32;3.77;;;1.30;;
39190;SDS011;24916;51.676;6.614;2022-07-23T09:48:10;4.63;;;1.67;;
39190;SDS011;24916;51.676;6.614;2022-07-23T09:50:36;3.50;;;1.58;;
39190;SDS011;24916;51.676;6.614;2022-07-23T09:53:01;4.33;;;1.57;;
39190;SDS011;24916;51.676;6.614;2022-07-23T09:55:30;2.97;;;1.35;;
39190;SDS011;24916;51.676;6.614;2022-07-23T09:58:00;5.22;;;1.65;;
39190;SDS011;24916;51.676;6.614;2022-07-23T10:00:25;2.25;;;1.20;;
39190;SDS011;24916;51.676;6.614;2022-07-23T10:02:50;3.08;;;1.15;;
39190;SDS011;24916;51.676;6.614;2022-07-23T10:05:16;5.55;;;1.77;;
39190;SDS011;24916;51.676;6.614;2022-07-23T10:07:42;3.17;;;1.30;;
39190;SDS011;24916;51.676;6.614;2022-07-23T10:10:08;2.90;;;1.35;;
39190;SDS011;24916;51.676;6.614;2022-07-23T10:12:37;2.85;;;1.10;;
39190;SDS011;24916;51.676;6.614;2022-07-23T10:15:21;3.38;;;1.52;;
39190;SDS011;24916;51.676;6.614;2022-07-23T10:17:47;2.88;;;1.30;;
39190;SDS011;24916;51.676;6.614;2022-07-23T10:20:13;3.28;;;1.20;;
39190;SDS011;24916;51.676;6.614;2022-07-23T10:22:47;3.40;;;1.20;;
39190;SDS011;24916;51.676;6.614;2022-07-23T10:25:32;3.40;;;1.50;;
39190;SDS011;24916;51.676;6.614;2022-07-23T10:33:11;3.30;;;1.60;;
39190;SDS011;24916;51.676;6.614;2022-07-23T10:41:04;2.55;;;0.98;;
39190;SDS011;24916;51.676;6.614;2022-07-23T10:43:30;3.28;;;1.35;;
39190;SDS011;24916;51.676;6.614;2022-07-23T10:45:55;2.90;;;1.20;;
39190;SDS011;24916;51.676;6.614;2022-07-23T10:48:25;4.75;;;1.23;;
39190;SDS011;24916;51.676;6.614;2022-07-23T10:56:17;2.63;;;1.17;;
39190;SDS011;24916;51.676;6.614;2022-07-23T10:59:05;3.33;;;1.60;;
39190;SDS011;24916;51.676;6.614;2022-07-23T11:03:59;3.20;;;1.30;;
39190;SDS011;24916;51.676;6.614;2022-07-23T11:06:36;3.50;;;1.30;;
39190;SDS011;24916;51.676;6.614;2022-07-23T11:09:28;3.05;;;1.10;;
39190;SDS011;24916;51.676;6.614;2022-07-23T11:17:21;2.55;;;1.10;;
39190;SDS011;24916;51.676;6.614;2022-07-23T11:22:37;4.45;;;1.17;;
39190;SDS011;24916;51.676;6.614;2022-07-23T11:28:28;3.72;;;1.05;;
39190;SDS011;24916;51.676;6.614;2022-07-23T11:32:50;2.80;;;1.20;;
39190;SDS011;24916;51.676;6.614;2022-07-23T11:35:23;7.17;;;1.70;;
39190;SDS011;24916;51.676;6.614;2022-07-23T11:37:49;1.88;;;0.98;;
39190;SDS011;24916;51.676;6.614;2022-07-23T11:40:18;2.70;;;1.45;;
39190;SDS011;24916;51.676;6.614;2022-07-23T11:45:21;2.53;;;1.05;;
39190;SDS011;24916;51.676;6.614;2022-07-23T11:47:47;2.38;;;1.00;;
39190;SDS011;24916;51.676;6.614;2022-07-23T11:50:12;3.50;;;1.30;;
39190;SDS011;24916;51.676;6.614;2022-07-23T11:52:38;2.13;;;0.93;;
39190;SDS011;24916;51.676;6.614;2022-07-23T11:55:05;5.30;;;1.40;;
39190;SDS011;24916;51.676;6.614;2022-07-23T11:57:32;4.25;;;2.10;;
39190;SDS011;24916;51.676;6.614;2022-07-23T12:00:00;4.00;;;2.08;;
39190;SDS011;24916;51.676;6.614;2022-07-23T12:02:26;3.63;;;1.10;;
39190;SDS011;24916;51.676;6.614;2022-07-23T12:04:52;5.03;;;2.55;;
39190;SDS011;24916;51.676;6.614;2022-07-23T12:07:31;4.65;;;2.08;;
39190;SDS011;24916;51.676;6.614;2022-07-23T12:09:58;3.60;;;1.13;;
39190;SDS011;24916;51.676;6.614;2022-07-23T12:12:23;1.67;;;1.00;;
39190;SDS011;24916;51.676;6.614;2022-07-23T12:14:50;2.73;;;1.10;;
39190;SDS011;24916;51.676;6.614;2022-07-23T12:17:15;2.92;;;1.33;;
39190;SDS011;24916;51.676;6.614;2022-07-23T12:19:41;2.58;;;1.27;;
39190;SDS011;24916;51.676;6.614;2022-07-23T12:22:06;1.70;;;1.00;;
39190;SDS011;24916;51.676;6.614;2022-07-23T12:24:51;3.00;;;1.10;;
39190;SDS011;24916;51.676;6.614;2022-07-23T12:27:19;2.80;;;0.90;;
39190;SDS011;24916;51.676;6.614;2022-07-23T12:29:45;6.53;;;2.08;;
39190;SDS011;24916;51.676;6.614;2022-07-23T12:32:43;4.13;;;1.93;;
39190;SDS011;24916;51.676;6.614;2022-07-23T12:35:08;2.47;;;1.30;;
39190;SDS011;24916;51.676;6.614;2022-07-23T12:37:37;2.63;;;0.82;;
39190;SDS011;24916;51.676;6.614;2022-07-23T12:42:47;2.22;;;1.15;;
39190;SDS011;24916;51.676;6.614;2022-07-23T12:45:12;2.63;;;1.25;;
39190;SDS011;24916;51.676;6.614;2022-07-23T12:53:17;2.72;;;1.20;;
39190;SDS011;24916;51.676;6.614;2022-07-23T12:55:43;4.10;;;1.30;;
39190;SDS011;24916;51.676;6.614;2022-07-23T12:58:13;2.10;;;1.30;;
39190;SDS011;24916;51.676;6.614;2022-07-23T13:03:26;2.50;;;1.40;;
39190;SDS011;24916;51.676;6.614;2022-07-23T13:05:52;2.90;;;1.48;;
39190;SDS011;24916;51.676;6.614;2022-07-23T13:08:17;3.07;;;1.40;;
39190;SDS011;24916;51.676;6.614;2022-07-23T13:10:42;4.13;;;1.67;;
39190;SDS011;24916;51.676;6.614;2022-07-23T13:13:10;2.95;;;1.60;;
39190;SDS011;24916;51.676;6.614;2022-07-23T13:15:35;3.58;;;1.40;;
39190;SDS011;24916;51.676;6.614;2022-07-23T13:18:01;5.97;;;2.47;;
39190;SDS011;24916;51.676;6.614;2022-07-23T13:20:26;3.53;;;1.40;;
39190;SDS011;24916;51.676;6.614;2022-07-23T13:22:51;3.27;;;1.80;;
39190;SDS011;24916;51.676;6.614;2022-07-23T13:25:16;4.17;;;1.90;;
39190;SDS011;24916;51.676;6.614;2022-07-23T13:27:42;6.20;;;1.70;;
39190;SDS011;24916;51.676;6.614;2022-07-23T13:30:07;4.00;;;1.37;;
39190;SDS011;24916;51.676;6.614;2022-07-23T13:32:34;3.17;;;1.30;;
39190;SDS011;24916;51.676;6.614;2022-07-23T13:34:59;2.63;;;1.10;;
39190;SDS011;24916;51.676;6.614;2022-07-23T13:37:24;4.07;;;1.40;;
39190;SDS011;24916;51.676;6.614;2022-07-23T13:39:51;2.90;;;1.52;;
39190;SDS011;24916;51.676;6.614;2022-07-23T13:42:16;2.47;;;1.40;;
39190;SDS011;24916;51.676;6.614;2022-07-23T13:44:41;3.87;;;1.47;;
39190;SDS011;24916;51.676;6.614;2022-07-23T13:47:06;2.47;;;1.50;;
39190;SDS011;24916;51.676;6.614;2022-07-23T13:49:32;3.83;;;1.20;;
39190;SDS011;24916;51.676;6.614;2022-07-23T13:51:57;2.60;;;1.30;;
39190;SDS011;24916;51.676;6.614;2022-07-23T13:54:23;2.35;;;1.20;;
39190;SDS011;24916;51.676;6.614;2022-07-23T13:56:48;3.27;;;1.50;;
39190;SDS011;24916;51.676;6.614;2022-07-23T13:59:13;2.83;;;1.27;;
39190;SDS011;24916;51.676;6.614;2022-07-23T14:01:39;2.40;;;1.38;;
39190;SDS011;24916;51.676;6.614;2022-07-23T14:04:04;3.93;;;1.37;;
39190;SDS011;24916;51.676;6.614;2022-07-23T14:06:29;3.07;;;1.50;;
39190;SDS011;24916;51.676;6.614;2022-07-23T14:08:55;3.13;;;1.30;;
39190;SDS011;24916;51.676;6.614;2022-07-23T14:11:20;2.77;;;1.40;;
39190;SDS011;24916;51.676;6.614;2022-07-23T14:13:45;4.57;;;1.43;;
39190;SDS011;24916;51.676;6.614;2022-07-23T14:16:10;2.83;;;1.60;;
39190;SDS011;24916;51.676;6.614;2022-07-23T14:18:36;2.33;;;1.40;;
39190;SDS011;24916;51.676;6.614;2022-07-23T14:21:02;7.68;;;3.83;;
39190;SDS011;24916;51.676;6.614;2022-07-23T14:23:27;4.53;;;1.88;;
39190;SDS011;24916;51.676;6.614;2022-07-23T14:25:52;4.20;;;1.73;;
39190;SDS011;24916;51.676;6.614;2022-07-23T14:28:18;5.97;;;3.20;;
39190;SDS011;24916;51.676;6.614;2022-07-23T14:30:43;3.57;;;1.60;;
39190;SDS011;24916;51.676;6.614;2022-07-23T14:33:08;6.30;;;2.00;;
39190;SDS011;24916;51.676;6.614;2022-07-23T14:35:34;2.50;;;1.50;;
39190;SDS011;24916;51.676;6.614;2022-07-23T14:37:59;5.15;;;1.85;;
39190;SDS011;24916;51.676;6.614;2022-07-23T14:40:24;10.23;;;6.43;;
39190;SDS011;24916;51.676;6.614;2022-07-23T14:42:49;5.53;;;2.50;;
39190;SDS011;24916;51.676;6.614;2022-07-23T14:45:15;3.57;;;1.90;;
39190;SDS011;24916;51.676;6.614;2022-07-23T14:47:40;8.35;;;4.85;;
39190;SDS011;24916;51.676;6.614;2022-07-23T14:50:06;11.45;;;6.63;;
39190;SDS011;24916;51.676;6.614;2022-07-23T14:52:31;3.25;;;2.05;;
39190;SDS011;24916;51.676;6.614;2022-07-23T14:54:56;5.97;;;3.33;;
39190;SDS011;24916;51.676;6.614;2022-07-23T14:57:22;5.40;;;3.25;;
39190;SDS011;24916;51.676;6.614;2022-07-23T14:59:53;6.67;;;2.60;;
39190;SDS011;24916;51.676;6.614;2022-07-23T15:02:18;5.90;;;3.90;;
39190;SDS011;24916;51.676;6.614;2022-07-23T15:04:44;4.57;;;2.63;;
39190;SDS011;24916;51.676;6.614;2022-07-23T15:07:09;6.13;;;3.10;;
39190;SDS011;24916;51.676;6.614;2022-07-23T15:09:34;6.93;;;3.67;;
39190;SDS011;24916;51.676;6.614;2022-07-23T15:12:00;4.13;;;2.08;;
39190;SDS011;24916;51.676;6.614;2022-07-23T15:14:25;4.60;;;2.30;;
39190;SDS011;24916;51.676;6.614;2022-07-23T15:16:50;4.63;;;1.93;;
39190;SDS011;24916;51.676;6.614;2022-07-23T15:19:16;4.05;;;2.13;;
39190;SDS011;24916;51.676;6.614;2022-07-23T15:21:41;4.93;;;2.35;;
39190;SDS011;24916;51.676;6.614;2022-07-23T15:24:06;4.63;;;1.90;;
39190;SDS011;24916;51.676;6.614;2022-07-23T15:26:31;4.70;;;2.00;;
39190;SDS011;24916;51.676;6.614;2022-07-23T15:28:57;9.48;;;6.57;;
39190;SDS011;24916;51.676;6.614;2022-07-23T15:31:23;8.32;;;5.57;;
39190;SDS011;24916;51.676;6.614;2022-07-23T15:33:49;4.40;;;2.83;;